Time;durP1;ratioP1;P1;durP2;ratioP2;P2;SDS_P1;SDS_P2;PMS_P1;PMS_P2;Temp;Humidity;BMP_temperature;BMP_pressure;BME280_temperature;BME280_humidity;BME280_pressure;Samples;Min_cycle;Max_cycle;Signal;HPM_P1;HPM_P2
2023/01/28 00:02:12;;;;;;;2.15;1.00;;;3.10;99.90;;;;;;5051090;28;20048;-79
2023/01/28 00:04:58;;;;;;;3.63;1.60;;;3.00;99.90;;;;;;5033222;28;20053;-80
2023/01/28 00:07:47;;;;;;;3.35;1.50;;;3.00;99.90;;;;;;5051968;28;20060;-83
2023/01/28 00:10:33;;;;;;;2.85;1.20;;;3.00;99.90;;;;;;5053081;28;20100;-82
2023/01/28 00:13:19;;;;;;;2.97;1.60;;;3.00;99.90;;;;;;5051875;28;20048;-84
2023/01/28 00:16:08;;;;;;;3.15;1.30;;;3.00;99.90;;;;;;5038087;28;20084;-79
2023/01/28 00:18:54;;;;;;;3.72;1.40;;;3.00;99.90;;;;;;5051869;28;20136;-81
2023/01/28 00:21:41;;;;;;;3.17;1.50;;;3.00;99.90;;;;;;5052812;28;20059;-84
2023/01/28 00:24:27;;;;;;;4.80;1.92;;;2.90;99.90;;;;;;5053570;28;20060;-79
2023/01/28 00:27:13;;;;;;;3.42;1.55;;;3.00;99.90;;;;;;5050337;28;20055;-79
2023/01/28 00:29:59;;;;;;;7.88;1.63;;;3.00;99.90;;;;;;5051994;28;20646;-79
2023/01/28 00:32:45;;;;;;;3.28;1.65;;;3.00;99.90;;;;;;5051284;28;20056;-80
2023/01/28 00:35:32;;;;;;;5.38;1.85;;;3.00;99.90;;;;;;5052401;28;20060;-80
2023/01/28 00:38:18;;;;;;;3.67;1.70;;;3.00;99.90;;;;;;5034543;28;20147;-78
2023/01/28 00:41:15;;;;;;;4.05;1.42;;;2.90;99.90;;;;;;5053696;28;20049;-80
2023/01/28 00:44:01;;;;;;;5.03;1.83;;;2.90;99.90;;;;;;5056610;28;20416;-80
2023/01/28 00:46:47;;;;;;;5.53;2.05;;;3.00;99.90;;;;;;5036234;28;20077;-81
2023/01/28 00:49:33;;;;;;;5.35;2.28;;;2.90;99.90;;;;;;5051469;28;20041;-79
2023/01/28 00:52:19;;;;;;;4.13;2.25;;;2.90;99.90;;;;;;5051325;28;20049;-81
2023/01/28 00:55:06;;;;;;;3.85;2.20;;;2.90;99.90;;;;;;5053719;28;20128;-85
2023/01/28 00:57:52;;;;;;;3.90;2.30;;;2.90;99.90;;;;;;5033588;28;20045;-79
2023/01/28 01:00:38;;;;;;;5.65;2.40;;;2.90;99.90;;;;;;5050763;28;20052;-80
2023/01/28 01:03:25;;;;;;;4.78;2.17;;;2.90;99.90;;;;;;5050453;28;20452;-81
2023/01/28 01:06:12;;;;;;;4.95;2.10;;;2.90;99.90;;;;;;5030906;28;20057;-77
2023/01/28 01:08:59;;;;;;;3.42;1.73;;;2.90;99.90;;;;;;5032671;28;20049;-79
2023/01/28 01:11:45;;;;;;;7.25;2.08;;;2.90;99.90;;;;;;5036478;28;20061;-79
2023/01/28 01:14:32;;;;;;;8.30;2.42;;;2.90;99.90;;;;;;5029411;28;20060;-79
2023/01/28 01:17:20;;;;;;;3.72;1.63;;;2.90;99.90;;;;;;5031392;28;20042;-82
2023/01/28 01:20:11;;;;;;;4.07;1.75;;;2.90;99.90;;;;;;5029686;28;20516;-81
2023/01/28 01:22:57;;;;;;;6.63;2.40;;;2.90;99.90;;;;;;5030755;28;20077;-80
2023/01/28 01:25:43;;;;;;;3.85;2.00;;;2.90;99.90;;;;;;5030815;28;20088;-80
2023/01/28 01:28:29;;;;;;;4.40;2.00;;;2.90;99.90;;;;;;5035110;28;20473;-79
2023/01/28 01:31:18;;;;;;;4.60;1.88;;;2.90;99.90;;;;;;5030002;28;20557;-78
2023/01/28 01:34:04;;;;;;;3.97;1.88;;;2.90;99.90;;;;;;5030444;28;20056;-81
2023/01/28 01:36:50;;;;;;;5.55;2.42;;;2.90;99.90;;;;;;5030865;28;20100;-79
2023/01/28 01:39:36;;;;;;;3.90;2.13;;;2.90;99.90;;;;;;5031358;28;20053;-79
2023/01/28 01:42:27;;;;;;;5.38;2.17;;;2.90;99.90;;;;;;5034550;28;20053;-83
2023/01/28 01:45:15;;;;;;;4.63;2.05;;;2.90;99.90;;;;;;5032319;28;20136;-80
2023/01/28 01:48:10;;;;;;;5.15;2.30;;;2.90;99.90;;;;;;5032073;28;20057;-78
2023/01/28 01:51:03;;;;;;;4.13;2.35;;;2.80;99.90;;;;;;5031717;28;20049;-80
2023/01/28 01:53:52;;;;;;;5.00;2.03;;;2.80;99.90;;;;;;5031071;28;20050;-83
2023/01/28 01:56:43;;;;;;;3.95;2.35;;;2.80;99.90;;;;;;5030130;28;20443;-80
2023/01/28 01:59:32;;;;;;;4.70;2.50;;;2.80;99.90;;;;;;5032243;28;20045;-82
2023/01/28 02:02:19;;;;;;;4.47;2.40;;;2.80;99.90;;;;;;5030333;28;20053;-81
2023/01/28 02:05:07;;;;;;;4.95;2.22;;;2.80;99.90;;;;;;5030208;28;20099;-77
2023/01/28 02:08:19;;;;;;;6.03;2.58;;;2.80;99.90;;;;;;5052877;28;20077;-81
2023/01/28 02:11:05;;;;;;;4.38;2.30;;;2.80;99.90;;;;;;5052616;28;20056;-79
2023/01/28 02:13:53;;;;;;;3.83;1.98;;;2.80;99.90;;;;;;5053741;28;20167;-80
2023/01/28 02:16:39;;;;;;;5.25;2.17;;;2.80;99.90;;;;;;5056173;28;20060;-81
2023/01/28 02:19:51;;;;;;;4.78;2.15;;;2.80;99.90;;;;;;5053455;28;20524;-79
2023/01/28 02:23:08;;;;;;;5.85;2.42;;;2.70;99.90;;;;;;5053441;28;20421;-80
2023/01/28 02:26:05;;;;;;;5.15;2.42;;;2.70;99.90;;;;;;5054101;28;20053;-78
2023/01/28 02:29:20;;;;;;;4.10;2.03;;;2.70;99.90;;;;;;5056598;28;20484;-79
2023/01/28 02:32:06;;;;;;;6.05;2.85;;;2.60;99.90;;;;;;5052892;28;20106;-77
2023/01/28 02:35:19;;;;;;;4.80;2.40;;;2.60;99.90;;;;;;5054084;28;20102;-83
2023/01/28 02:38:20;;;;;;;6.03;3.20;;;2.60;99.90;;;;;;5054141;28;20135;-83
2023/01/28 02:41:12;;;;;;;6.35;3.00;;;2.70;99.90;;;;;;5053102;28;20052;-84
2023/01/28 02:44:02;;;;;;;6.22;4.10;;;2.60;99.90;;;;;;5054575;28;20049;-79
2023/01/28 02:49:58;;;;;;;6.38;3.30;;;2.70;99.90;;;;;;5051584;28;20049;-81
2023/01/28 02:56:14;;;;;;;7.50;3.88;;;2.70;99.90;;;;;;5052018;28;20072;-78
2023/01/28 03:02:43;;;;;;;5.45;3.40;;;2.60;99.90;;;;;;5051477;28;20049;-79
2023/01/28 03:05:40;;;;;;;6.85;3.70;;;2.60;99.90;;;;;;5053420;28;20513;-78
2023/01/28 03:37:09;;;;;;;6.90;3.90;;;2.60;99.90;;;;;;5051406;28;20409;-81
2023/01/28 03:40:00;;;;;;;6.95;4.38;;;2.60;99.90;;;;;;5052261;28;20053;-84
2023/01/28 03:42:46;;;;;;;7.50;4.60;;;2.60;99.90;;;;;;5040296;28;20056;-78
2023/01/28 03:45:33;;;;;;;8.70;4.40;;;2.60;99.90;;;;;;5052101;28;20137;-77
2023/01/28 03:48:21;;;;;;;8.05;4.60;;;2.60;99.90;;;;;;5033202;28;20489;-78
2023/01/28 03:51:07;;;;;;;6.60;4.28;;;2.60;99.90;;;;;;5033066;28;20049;-79
2023/01/28 03:53:53;;;;;;;7.05;3.95;;;2.60;99.90;;;;;;5051968;28;20075;-77
2023/01/28 03:56:40;;;;;;;8.02;4.15;;;2.50;99.90;;;;;;5053378;28;20052;-81
2023/01/28 03:59:26;;;;;;;6.55;4.20;;;2.50;99.90;;;;;;5050789;28;20056;-81
2023/01/28 04:02:14;;;;;;;10.27;4.65;;;2.50;99.90;;;;;;5052821;28;20056;-79
2023/01/28 04:05:05;;;;;;;8.02;4.88;;;2.50;99.90;;;;;;5050433;28;20045;-79
2023/01/28 04:07:55;;;;;;;7.13;4.55;;;2.60;99.90;;;;;;5049516;28;20061;-78
2023/01/28 04:10:42;;;;;;;7.40;3.50;;;2.50;99.90;;;;;;5050220;28;20068;-78
2023/01/28 04:13:28;;;;;;;9.00;4.30;;;2.50;99.90;;;;;;5053660;28;20057;-78
2023/01/28 04:16:17;;;;;;;7.93;4.57;;;2.50;99.90;;;;;;5050787;28;20045;-79
2023/01/28 04:19:03;;;;;;;11.20;4.97;;;2.50;99.90;;;;;;5037318;28;20056;-81
2023/01/28 04:21:52;;;;;;;5.82;3.65;;;2.50;99.90;;;;;;5053667;28;20049;-78
2023/01/28 04:24:38;;;;;;;7.20;4.22;;;2.50;99.90;;;;;;5035917;28;20063;-80
2023/01/28 04:27:24;;;;;;;7.40;3.95;;;2.50;99.90;;;;;;5051494;28;20521;-82
2023/01/28 04:30:11;;;;;;;8.52;4.82;;;2.50;99.90;;;;;;5051383;28;20056;-78
2023/01/28 04:32:57;;;;;;;7.00;4.03;;;2.50;99.90;;;;;;5050872;28;20536;-78
2023/01/28 04:35:43;;;;;;;6.93;3.90;;;2.50;99.90;;;;;;5033165;28;20076;-78
2023/01/28 04:38:29;;;;;;;9.77;4.40;;;2.50;99.90;;;;;;5035672;28;20135;-78
2023/01/28 04:41:15;;;;;;;7.03;4.03;;;2.40;99.90;;;;;;5054591;28;20060;-80
2023/01/28 04:44:01;;;;;;;7.95;4.80;;;2.40;99.90;;;;;;5051407;28;20071;-79
2023/01/28 04:46:48;;;;;;;6.75;3.92;;;2.40;99.90;;;;;;5033164;28;20080;-78
2023/01/28 04:49:34;;;;;;;7.20;4.28;;;2.40;99.90;;;;;;5051762;28;20045;-79
2023/01/28 04:52:20;;;;;;;5.82;3.22;;;2.40;99.90;;;;;;5050565;28;20085;-79
2023/01/28 04:55:08;;;;;;;5.25;3.38;;;2.40;99.90;;;;;;5050787;28;20444;-82
2023/01/28 04:57:54;;;;;;;7.20;4.15;;;2.40;99.90;;;;;;5051351;28;20045;-80
2023/01/28 05:00:40;;;;;;;6.68;4.00;;;2.40;99.90;;;;;;5050345;28;20615;-79
2023/01/28 05:03:26;;;;;;;7.03;4.10;;;2.30;99.90;;;;;;5050687;28;20049;-78
2023/01/28 05:06:12;;;;;;;8.05;4.15;;;2.40;99.90;;;;;;5049167;28;20060;-75
2023/01/28 05:08:58;;;;;;;7.20;3.67;;;2.30;99.90;;;;;;5051269;28;20103;-76
2023/01/28 05:11:45;;;;;;;7.20;3.90;;;2.30;99.90;;;;;;5049342;28;20115;-76
2023/01/28 05:14:31;;;;;;;6.68;3.92;;;2.30;99.90;;;;;;5031824;28;20057;-78
2023/01/28 05:17:17;;;;;;;7.18;4.55;;;2.30;99.90;;;;;;5035368;28;20547;-79
2023/01/28 05:20:04;;;;;;;6.38;4.03;;;2.20;99.90;;;;;;5052665;28;20084;-80
2023/01/28 05:22:50;;;;;;;6.65;4.00;;;2.30;99.90;;;;;;5050454;28;20156;-78
2023/01/28 05:25:36;;;;;;;8.05;4.00;;;2.30;99.90;;;;;;5049350;28;20053;-76
2023/01/28 05:28:22;;;;;;;7.90;4.15;;;2.30;99.90;;;;;;5050437;28;20049;-82
2023/01/28 05:31:10;;;;;;;6.43;4.15;;;2.30;99.90;;;;;;5049689;28;20520;-76
2023/01/28 05:33:56;;;;;;;7.53;4.10;;;2.30;99.90;;;;;;5049753;28;20118;-77
2023/01/28 05:36:42;;;;;;;6.88;4.07;;;2.30;99.90;;;;;;5050314;28;20064;-76
2023/01/28 05:39:28;;;;;;;6.65;3.60;;;2.30;99.90;;;;;;5049864;28;20055;-77
2023/01/28 05:42:14;;;;;;;6.55;4.05;;;2.30;99.90;;;;;;5053667;28;20056;-77
2023/01/28 05:45:00;;;;;;;7.07;4.05;;;2.30;99.90;;;;;;5057079;28;20561;-77
2023/01/28 05:47:46;;;;;;;7.53;3.75;;;2.30;99.90;;;;;;5053710;28;20488;-78
2023/01/28 05:50:33;;;;;;;7.20;4.50;;;2.30;99.90;;;;;;5035992;28;20529;-79
2023/01/28 05:53:19;;;;;;;8.15;4.38;;;2.30;99.90;;;;;;5021504;28;20053;-79
2023/01/28 05:56:05;;;;;;;8.27;4.63;;;2.30;99.90;;;;;;5053632;28;20124;-78
2023/01/28 05:58:51;;;;;;;9.45;4.25;;;2.30;99.90;;;;;;5054519;28;20049;-84
2023/01/28 06:01:37;;;;;;;7.53;4.18;;;2.30;99.90;;;;;;5055893;28;20107;-79
2023/01/28 06:04:23;;;;;;;6.80;3.88;;;2.30;99.90;;;;;;5052719;28;20056;-78
2023/01/28 06:07:12;;;;;;;7.28;4.50;;;2.30;99.90;;;;;;5052187;28;20140;-78
2023/01/28 06:09:58;;;;;;;7.93;4.90;;;2.30;99.90;;;;;;5038047;28;20769;-81
2023/01/28 06:12:44;;;;;;;8.15;4.63;;;2.30;99.90;;;;;;5053655;28;20126;-79
2023/01/28 06:15:30;;;;;;;8.35;4.40;;;2.20;99.90;;;;;;5055832;28;20172;-79
2023/01/28 06:18:16;;;;;;;8.80;4.60;;;2.20;99.90;;;;;;5056925;28;20049;-77
2023/01/28 06:21:03;;;;;;;8.68;4.90;;;2.10;99.90;;;;;;5053434;28;20041;-83
2023/01/28 06:23:49;;;;;;;6.65;4.03;;;2.00;99.90;;;;;;5053341;28;20060;-79
2023/01/28 06:26:35;;;;;;;8.25;4.93;;;2.00;99.90;;;;;;5054160;28;20063;-80
2023/01/28 06:29:21;;;;;;;9.55;4.53;;;1.90;99.90;;;;;;5054873;28;20081;-82
2023/01/28 06:32:08;;;;;;;15.48;5.15;;;1.90;99.90;;;;;;5037537;28;20103;-79
2023/01/28 06:34:54;;;;;;;8.38;4.70;;;1.90;99.90;;;;;;5034707;28;20691;-79
2023/01/28 06:37:40;;;;;;;7.53;4.22;;;1.90;99.90;;;;;;5054349;28;20691;-78
2023/01/28 06:40:26;;;;;;;8.48;4.63;;;1.90;99.90;;;;;;5037749;28;20087;-81
2023/01/28 06:43:12;;;;;;;8.27;4.80;;;1.80;99.90;;;;;;5021239;28;20052;-77
2023/01/28 06:45:59;;;;;;;9.13;4.78;;;1.70;99.90;;;;;;5053053;28;20048;-81
2023/01/28 06:48:45;;;;;;;8.88;5.20;;;1.70;99.90;;;;;;5054751;28;20064;-79
2023/01/28 06:51:31;;;;;;;8.25;4.70;;;1.70;99.90;;;;;;5053782;28;20203;-83
2023/01/28 06:54:17;;;;;;;7.75;4.22;;;1.70;99.90;;;;;;5052588;28;20102;-80
2023/01/28 06:57:03;;;;;;;7.97;5.00;;;1.60;99.90;;;;;;5035866;28;20408;-78
2023/01/28 06:59:49;;;;;;;10.57;4.80;;;1.50;99.90;;;;;;5056011;28;20405;-82
2023/01/28 07:02:38;;;;;;;8.40;5.18;;;1.50;99.90;;;;;;5056434;28;20052;-82
2023/01/28 07:05:25;;;;;;;14.63;7.43;;;1.40;99.90;;;;;;5053388;28;20045;-77
2023/01/28 07:08:11;;;;;;;9.80;5.72;;;1.40;99.90;;;;;;5051738;28;20064;-77
2023/01/28 07:10:57;;;;;;;10.70;5.13;;;1.30;99.90;;;;;;5052752;28;20045;-79
2023/01/28 07:13:43;;;;;;;11.02;6.38;;;1.30;99.90;;;;;;5052956;28;20130;-78
2023/01/28 07:16:30;;;;;;;9.25;5.47;;;1.30;99.90;;;;;;5052030;28;20044;-78
2023/01/28 07:19:16;;;;;;;10.07;5.85;;;1.20;99.90;;;;;;5054039;28;20049;-78
2023/01/28 07:22:02;;;;;;;10.20;5.85;;;1.20;99.90;;;;;;5036771;28;20056;-78
2023/01/28 07:24:49;;;;;;;10.80;5.95;;;1.20;99.90;;;;;;5053013;28;20041;-78
2023/01/28 07:27:35;;;;;;;10.70;5.95;;;1.20;99.90;;;;;;5036106;28;20524;-81
2023/01/28 07:30:22;;;;;;;8.43;5.32;;;1.20;99.90;;;;;;5019956;28;20061;-77
2023/01/28 07:33:08;;;;;;;10.32;5.95;;;1.20;99.90;;;;;;5019316;28;20048;-79
2023/01/28 07:35:55;;;;;;;9.98;5.63;;;1.20;99.90;;;;;;5038862;28;20048;-78
2023/01/28 07:38:41;;;;;;;12.05;6.63;;;1.20;99.90;;;;;;5053724;28;20118;-78
2023/01/28 07:41:28;;;;;;;11.55;6.70;;;1.20;99.90;;;;;;5052200;28;20053;-80
2023/01/28 07:44:14;;;;;;;13.82;7.35;;;1.20;99.90;;;;;;5050676;28;20061;-78
2023/01/28 07:47:00;;;;;;;11.15;6.60;;;1.20;99.90;;;;;;5052361;28;20102;-79
2023/01/28 07:49:46;;;;;;;11.90;7.40;;;1.20;99.90;;;;;;5033919;28;20052;-80
2023/01/28 07:52:37;;;;;;;14.82;7.65;;;1.20;99.90;;;;;;5052313;28;20056;-83
2023/01/28 07:55:24;;;;;;;16.63;7.90;;;1.20;99.90;;;;;;5051288;28;20084;-80
2023/01/28 07:58:11;;;;;;;13.90;7.25;;;1.20;99.90;;;;;;5052743;28;20063;-79
2023/01/28 08:00:57;;;;;;;13.32;7.30;;;1.20;99.90;;;;;;5051421;28;20044;-77
2023/01/28 08:03:43;;;;;;;14.25;7.63;;;1.20;99.90;;;;;;5032102;28;20041;-77
2023/01/28 08:06:30;;;;;;;17.13;7.53;;;1.20;99.90;;;;;;5048781;28;20049;-78
2023/01/28 08:09:16;;;;;;;15.95;8.48;;;1.30;99.90;;;;;;5054491;28;20049;-80
2023/01/28 08:12:02;;;;;;;13.68;7.80;;;1.30;99.90;;;;;;5037044;28;20053;-77
2023/01/28 08:14:48;;;;;;;14.25;7.80;;;1.40;99.90;;;;;;5052731;28;20045;-77
2023/01/28 08:17:34;;;;;;;15.77;8.68;;;1.40;99.90;;;;;;5053237;28;20144;-78
2023/01/28 08:20:21;;;;;;;13.43;7.60;;;1.50;99.90;;;;;;5051022;28;20528;-79
2023/01/28 08:23:18;;;;;;;15.18;8.15;;;1.60;99.90;;;;;;5050122;28;20052;-81
2023/01/28 08:26:04;;;;;;;15.27;8.10;;;1.70;99.90;;;;;;5052004;28;20060;-82
2023/01/28 08:28:59;;;;;;;15.77;9.05;;;1.70;99.90;;;;;;5128970;27;20383;-76
2023/01/28 08:31:45;;;;;;;14.15;8.07;;;1.80;99.90;;;;;;5129278;28;20047;-79
2023/01/28 08:34:31;;;;;;;15.75;8.07;;;1.80;99.90;;;;;;5116347;27;20050;-77
2023/01/28 08:37:17;;;;;;;13.07;8.05;;;1.90;99.90;;;;;;5148362;27;20058;-78
2023/01/28 08:40:04;;;;;;;13.65;8.57;;;1.90;99.90;;;;;;5148203;27;20055;-80
2023/01/28 08:42:52;;;;;;;12.45;7.78;;;1.80;99.90;;;;;;5167462;27;20521;-84
2023/01/28 08:45:39;;;;;;;17.90;8.50;;;1.80;99.90;;;;;;5152416;27;20053;-80
2023/01/28 08:48:25;;;;;;;13.07;7.35;;;1.90;99.90;;;;;;5149100;27;20053;-79
2023/01/28 08:51:11;;;;;;;12.20;7.28;;;1.90;99.90;;;;;;5168570;27;20050;-78
2023/01/28 08:53:57;;;;;;;11.57;7.57;;;2.00;99.90;;;;;;5154223;27;20074;-78
2023/01/28 08:56:43;;;;;;;12.20;7.50;;;2.00;99.90;;;;;;5167451;27;20554;-80
2023/01/28 08:59:30;;;;;;;14.55;7.72;;;2.00;99.90;;;;;;5168450;27;20110;-80
2023/01/28 09:02:16;;;;;;;14.60;8.70;;;2.00;99.90;;;;;;5168809;27;20043;-83
2023/01/28 09:05:02;;;;;;;12.43;7.68;;;2.10;99.90;;;;;;5183619;27;20042;-80
2023/01/28 09:07:49;;;;;;;13.10;7.70;;;2.20;99.90;;;;;;5189193;27;20491;-79
2023/01/28 09:10:40;;;;;;;11.63;6.97;;;2.40;99.90;;;;;;5188314;27;20413;-77
2023/01/28 09:13:26;;;;;;;13.60;7.22;;;2.60;99.90;;;;;;5188302;27;20088;-78
2023/01/28 09:16:12;;;;;;;11.52;7.63;;;2.70;99.90;;;;;;5174859;27;20042;-79
2023/01/28 09:18:58;;;;;;;15.25;7.78;;;2.90;99.90;;;;;;5175119;27;20038;-84
2023/01/28 09:21:44;;;;;;;13.55;7.97;;;2.90;99.90;;;;;;5172915;27;20053;-78
2023/01/28 09:24:30;;;;;;;12.05;7.53;;;2.90;99.90;;;;;;5188263;27;20046;-78
2023/01/28 09:27:17;;;;;;;11.50;7.70;;;2.80;99.90;;;;;;5187261;27;20486;-78
2023/01/28 09:30:04;;;;;;;15.85;6.90;;;2.70;99.90;;;;;;5188851;27;20050;-78
2023/01/28 09:32:51;;;;;;;12.20;7.75;;;2.70;99.90;;;;;;5187702;27;20056;-79
2023/01/28 09:35:37;;;;;;;12.23;6.93;;;2.70;99.90;;;;;;5189514;27;20038;-81
2023/01/28 09:38:23;;;;;;;10.75;6.32;;;2.70;99.90;;;;;;5186899;27;20049;-84
2023/01/28 09:41:23;;;;;;;12.55;7.38;;;2.80;99.90;;;;;;5176450;27;20078;-80
2023/01/28 09:44:12;;;;;;;11.35;6.80;;;2.80;99.90;;;;;;5177370;27;20046;-79
2023/01/28 09:47:06;;;;;;;12.43;7.70;;;2.80;99.90;;;;;;5173921;27;20079;-81
2023/01/28 09:49:55;;;;;;;14.70;7.30;;;2.90;99.90;;;;;;5174766;27;20611;-80
2023/01/28 09:52:42;;;;;;;12.63;7.22;;;2.90;99.90;;;;;;5175271;27;20476;-83
2023/01/28 09:55:38;;;;;;;12.30;6.97;;;2.90;99.90;;;;;;5160308;27;20046;-82
2023/01/28 09:58:24;;;;;;;;;;;3.00;99.90;;;;;;5174942;27;20049;-85
2023/01/28 10:01:16;;;;;;;;;;;3.10;99.90;;;;;;5177225;27;20390;-79
2023/01/28 10:04:08;;;;;;;11.93;6.68;;;3.20;99.90;;;;;;5175182;27;19929;-80
2023/01/28 10:07:20;;;;;;;13.35;7.25;;;3.10;99.90;;;;;;5174644;27;20041;-82
2023/01/28 10:10:25;;;;;;;13.38;7.07;;;3.20;99.90;;;;;;5182816;27;20054;-80
2023/01/28 10:13:27;;;;;;;10.13;6.40;;;3.30;99.90;;;;;;5159807;27;20079;-82
2023/01/28 10:16:31;;;;;;;12.60;7.55;;;3.30;99.90;;;;;;5175173;27;20065;-83
2023/01/28 10:19:30;;;;;;;11.85;7.18;;;3.40;99.90;;;;;;5175034;27;20064;-83
2023/01/28 10:22:26;;;;;;;12.52;7.28;;;3.40;99.90;;;;;;5156242;27;20062;-81
2023/01/28 10:25:19;;;;;;;12.57;7.28;;;3.60;99.90;;;;;;5173923;27;20076;-78
2023/01/28 10:28:20;;;;;;;12.52;7.20;;;3.60;99.90;;;;;;5174605;27;20080;-78
2023/01/28 10:31:15;;;;;;;16.63;7.43;;;3.70;99.90;;;;;;5177765;27;20490;-80
2023/01/28 10:34:03;;;;;;;13.07;7.20;;;3.70;99.90;;;;;;5176563;27;20049;-83
2023/01/28 10:36:50;;;;;;;11.18;6.75;;;3.80;99.90;;;;;;5160737;27;20394;-79
2023/01/28 10:39:36;;;;;;;14.18;7.63;;;3.90;99.90;;;;;;5173224;27;20157;-78
2023/01/28 10:42:36;;;;;;;12.73;7.05;;;4.00;99.90;;;;;;5139699;27;20050;-81
2023/01/28 10:45:30;;;;;;;13.18;6.30;;;3.90;99.90;;;;;;5173200;27;20141;-79
2023/01/28 10:48:25;;;;;;;14.32;7.13;;;4.00;99.90;;;;;;5158921;27;20046;-81
2023/01/28 10:51:11;;;;;;;11.07;6.25;;;4.00;99.90;;;;;;5173944;27;20401;-80
2023/01/28 10:53:57;;;;;;;11.65;7.45;;;4.10;99.90;;;;;;5172864;27;20056;-79
2023/01/28 10:56:43;;;;;;;14.07;7.25;;;4.10;99.90;;;;;;5136516;27;20042;-78
2023/01/28 10:59:33;;;;;;;12.30;6.72;;;4.20;99.90;;;;;;5173497;27;20133;-78
2023/01/28 11:02:25;;;;;;;13.32;7.25;;;4.20;99.90;;;;;;5172104;27;20512;-78
2023/01/28 11:05:17;;;;;;;11.43;6.10;;;4.10;99.90;;;;;;5174271;27;20133;-80
2023/01/28 11:08:16;;;;;;;14.00;7.82;;;4.10;99.90;;;;;;5175491;27;20054;-79
2023/01/28 11:11:13;;;;;;;12.70;7.00;;;4.10;99.90;;;;;;5173107;27;20039;-79
2023/01/28 11:14:00;;;;;;;11.95;6.50;;;4.20;99.90;;;;;;5136679;27;20054;-79
2023/01/28 11:16:48;;;;;;;12.48;6.28;;;4.20;99.90;;;;;;5153965;27;20577;-78
2023/01/28 11:19:35;;;;;;;12.60;6.15;;;4.30;99.90;;;;;;5173146;27;20046;-82
2023/01/28 11:22:34;;;;;;;11.00;6.50;;;4.40;99.90;;;;;;5174402;27;20053;-82
2023/01/28 11:25:33;;;;;;;12.43;6.22;;;4.50;99.90;;;;;;5174967;27;20042;-80
2023/01/28 11:28:21;;;;;;;12.15;6.18;;;4.60;99.90;;;;;;5172378;27;20061;-80
2023/01/28 11:31:09;;;;;;;11.40;6.28;;;4.70;99.90;;;;;;5173715;27;20039;-83
2023/01/28 11:33:59;;;;;;;9.90;5.40;;;4.80;99.90;;;;;;5159917;27;20053;-80
2023/01/28 11:37:12;;;;;;;11.75;5.70;;;4.90;99.90;;;;;;5172036;27;20050;-85
2023/01/28 11:40:21;;;;;;;9.07;5.13;;;5.00;99.90;;;;;;5174781;27;20058;-79
2023/01/28 11:43:07;;;;;;;8.93;4.60;;;5.00;99.90;;;;;;5171505;27;20053;-79
2023/01/28 11:46:07;;;;;;;9.23;4.88;;;4.90;99.90;;;;;;5171946;27;20490;-79
2023/01/28 11:49:37;;;;;;;11.00;5.15;;;4.90;99.90;;;;;;5171564;27;20051;-80
2023/01/28 11:52:55;;;;;;;11.60;6.05;;;4.80;99.90;;;;;;5172724;27;20113;-82
2023/01/28 11:56:08;;;;;;;10.90;5.40;;;4.70;99.90;;;;;;5181392;27;20049;-78
2023/01/28 11:59:20;;;;;;;11.32;5.75;;;5.70;99.90;;;;;;5177909;27;20078;-80
2023/01/28 12:02:21;;;;;;;10.45;5.18;;;7.60;99.90;;;;;;5158497;27;20053;-79
2023/01/28 12:05:18;;;;;;;10.98;5.13;;;9.40;99.90;;;;;;5172390;27;20042;-81
2023/01/28 12:08:31;;;;;;;8.05;4.15;;;10.50;99.90;;;;;;5172030;27;20042;-82
2023/01/28 12:15:08;;;;;;;10.75;4.65;;;12.00;99.90;;;;;;5175411;27;20042;-80
2023/01/28 12:18:24;;;;;;;8.23;4.07;;;12.50;98.40;;;;;;5173067;27;20129;-82
2023/01/28 12:21:36;;;;;;;7.55;3.35;;;12.80;98.70;;;;;;5171807;27;20465;-80
2023/01/28 12:24:48;;;;;;;8.73;3.50;;;13.20;97.70;;;;;;5171126;27;20564;-79
2023/01/28 12:27:37;;;;;;;6.22;3.58;;;12.70;95.20;;;;;;5153208;27;20065;-83
2023/01/28 12:30:28;;;;;;;9.13;4.50;;;12.90;96.70;;;;;;5152987;27;20490;-79
2023/01/28 12:33:25;;;;;;;8.05;4.07;;;13.00;96.80;;;;;;5150009;27;20107;-79
2023/01/28 12:36:20;;;;;;;7.45;4.50;;;12.90;95.50;;;;;;5149584;27;20478;-79
2023/01/28 12:39:26;;;;;;;6.18;3.38;;;13.00;96.40;;;;;;5151718;27;20546;-78
2023/01/28 12:42:19;;;;;;;9.43;3.35;;;12.00;95.50;;;;;;5135789;27;20077;-78
2023/01/28 12:45:26;;;;;;;7.60;3.92;;;11.10;97.60;;;;;;5150351;27;20042;-85
2023/01/28 12:48:20;;;;;;;7.07;3.13;;;10.40;99.30;;;;;;5150687;27;20050;-80
2023/01/28 12:51:15;;;;;;;9.52;3.08;;;9.70;99.90;;;;;;5150814;27;20046;-82
2023/01/28 12:54:01;;;;;;;7.50;3.42;;;9.60;99.90;;;;;;5149854;27;20137;-80
2023/01/28 12:56:53;;;;;;;8.38;3.13;;;9.50;99.90;;;;;;5151323;27;20054;-79
2023/01/28 12:59:48;;;;;;;6.70;3.53;;;8.80;99.90;;;;;;5148114;27;20047;-82
2023/01/28 13:02:49;;;;;;;8.48;3.97;;;8.40;99.90;;;;;;5153045;27;20111;-81
2023/01/28 13:05:40;;;;;;;6.68;3.40;;;8.20;99.90;;;;;;5150686;27;20039;-80
2023/01/28 13:08:28;;;;;;;9.55;3.75;;;8.00;99.90;;;;;;5156995;27;20141;-79
2023/01/28 13:11:17;;;;;;;8.88;3.60;;;7.80;99.90;;;;;;5153179;27;20379;-82
2023/01/28 13:14:04;;;;;;;7.10;3.10;;;7.60;99.90;;;;;;5150289;27;20043;-81
2023/01/28 13:16:50;;;;;;;8.55;3.40;;;7.30;99.90;;;;;;5153555;27;20057;-83
2023/01/28 13:19:39;;;;;;;9.90;3.65;;;7.20;99.90;;;;;;5155759;27;20050;-82
2023/01/28 13:22:32;;;;;;;11.57;3.85;;;7.00;99.90;;;;;;5153628;27;20520;-85
2023/01/28 13:25:20;;;;;;;5.90;2.58;;;6.90;99.90;;;;;;5155520;27;20043;-84
2023/01/28 13:28:26;;;;;;;8.30;2.50;;;6.90;99.90;;;;;;5136102;27;20054;-80
2023/01/28 13:31:16;;;;;;;4.68;1.90;;;6.90;99.90;;;;;;5153794;27;20486;-80
2023/01/28 13:34:04;;;;;;;6.30;1.90;;;7.00;99.90;;;;;;5153605;27;20508;-81
2023/01/28 13:36:51;;;;;;;4.30;1.70;;;7.00;99.90;;;;;;5135045;27;20110;-78
2023/01/28 13:39:37;;;;;;;8.50;1.67;;;6.90;99.90;;;;;;5136042;27;20505;-78
2023/01/28 13:42:30;;;;;;;11.77;2.38;;;6.80;99.90;;;;;;5157014;27;20099;-78
2023/01/28 13:45:16;;;;;;;11.65;1.75;;;6.70;99.90;;;;;;5158769;27;20198;-77
2023/01/28 13:48:14;;;;;;;6.35;1.80;;;6.60;99.90;;;;;;5154817;27;20114;-79
2023/01/28 13:51:03;;;;;;;7.53;1.65;;;6.50;99.90;;;;;;5140136;27;20054;-82
2023/01/28 13:53:58;;;;;;;5.40;1.45;;;6.50;99.90;;;;;;5155992;27;20045;-83
2023/01/28 13:56:47;;;;;;;6.72;1.60;;;6.40;99.90;;;;;;5144002;27;20049;-81
2023/01/28 13:59:39;;;;;;;6.57;1.75;;;6.30;99.90;;;;;;5138352;27;20398;-80
2023/01/28 14:02:34;;;;;;;5.85;1.58;;;6.20;99.90;;;;;;5138427;27;20102;-81
2023/01/28 14:05:43;;;;;;;3.97;1.10;;;6.10;99.90;;;;;;5164727;27;20133;-84
2023/01/28 14:09:04;;;;;;;3.28;1.60;;;6.00;99.90;;;;;;5144553;27;20043;-80
2023/01/28 14:11:53;;;;;;;6.47;1.05;;;6.00;99.90;;;;;;5140021;27;20053;-78
2023/01/28 14:15:10;;;;;;;8.88;1.23;;;6.00;99.90;;;;;;5156069;27;20049;-82
2023/01/28 14:17:58;;;;;;;4.43;1.10;;;6.00;99.90;;;;;;5137949;27;20046;-79
2023/01/28 14:20:45;;;;;;;2.60;0.90;;;5.90;99.90;;;;;;5139187;27;20100;-81
2023/01/28 14:23:31;;;;;;;7.15;1.48;;;5.90;99.90;;;;;;5136436;27;20053;-81
2023/01/28 14:26:39;;;;;;;6.15;0.90;;;5.80;99.90;;;;;;5155991;27;20398;-81
2023/01/28 14:29:47;;;;;;;9.93;2.10;;;5.80;99.90;;;;;;5155783;27;20065;-80
2023/01/28 14:32:34;;;;;;;4.60;1.17;;;5.70;99.90;;;;;;5153425;27;20103;-79
2023/01/28 14:35:29;;;;;;;5.45;1.27;;;5.70;99.90;;;;;;5134707;27;20054;-79
2023/01/28 14:38:19;;;;;;;5.13;1.48;;;5.60;99.90;;;;;;5153798;27;20046;-79
2023/01/28 14:41:08;;;;;;;3.85;1.20;;;5.60;99.90;;;;;;5154210;27;20047;-84
2023/01/28 14:43:55;;;;;;;3.85;1.25;;;5.50;99.90;;;;;;5153343;27;20483;-79
2023/01/28 14:46:53;;;;;;;5.28;1.30;;;5.50;99.90;;;;;;5140355;27;20406;-78
2023/01/28 14:50:19;;;;;;;2.92;0.93;;;5.50;99.90;;;;;;5152495;27;20046;-79
2023/01/28 14:53:20;;;;;;;4.05;1.80;;;5.60;99.90;;;;;;5128395;27;20474;-81
2023/01/28 14:56:36;;;;;;;6.47;2.20;;;5.50;99.90;;;;;;5135560;27;20089;-82
2023/01/28 14:59:27;;;;;;;10.27;1.63;;;5.60;99.90;;;;;;5134206;27;20573;-78
2023/01/28 15:02:24;;;;;;;3.85;1.20;;;5.50;99.90;;;;;;5152067;27;20050;-79
2023/01/28 15:05:21;;;;;;;6.43;1.50;;;5.50;99.90;;;;;;5133884;27;20046;-82
2023/01/28 15:08:07;;;;;;;14.68;3.38;;;5.50;99.90;;;;;;5152452;27;20089;-79
2023/01/28 15:10:53;;;;;;;4.18;1.50;;;5.50;99.90;;;;;;5151646;27;20043;-80
2023/01/28 15:13:43;;;;;;;5.18;1.42;;;5.50;99.90;;;;;;5152407;27;20089;-83
2023/01/28 15:16:30;;;;;;;6.15;1.20;;;5.40;99.90;;;;;;5151577;27;20042;-80
2023/01/28 15:19:21;;;;;;;3.95;1.73;;;5.40;99.90;;;;;;5136246;27;20060;-80
2023/01/28 15:22:08;;;;;;;6.72;1.20;;;5.40;99.90;;;;;;5152119;27;20078;-80
2023/01/28 15:24:55;;;;;;;5.55;1.30;;;5.40;99.90;;;;;;5152456;27;20047;-78
2023/01/28 15:27:41;;;;;;;4.80;1.58;;;5.40;99.90;;;;;;5153745;27;20581;-79
2023/01/28 15:30:30;;;;;;;7.07;1.50;;;5.30;99.90;;;;;;5151278;27;20122;-82
2023/01/28 15:33:19;;;;;;;5.07;1.60;;;5.30;99.90;;;;;;5152975;27;20130;-79
2023/01/28 15:36:05;;;;;;;5.63;1.48;;;5.30;99.90;;;;;;5151052;27;20050;-79
2023/01/28 15:38:56;;;;;;;8.20;1.77;;;5.20;99.90;;;;;;5119483;27;20081;-82